createdAt,value
2019-05-14T00:01:07.548Z,1.80
2019-05-14T00:06:11.947Z,1.90
2019-05-14T00:11:16.301Z,2.00
2019-05-14T00:16:23.813Z,1.70
2019-05-14T00:21:26.901Z,1.60
2019-05-14T00:26:31.841Z,2.13
2019-05-14T00:31:36.378Z,1.60
2019-05-14T00:36:41.639Z,1.70
2019-05-14T00:41:46.286Z,1.80
2019-05-14T00:46:51.614Z,1.67
2019-05-14T00:51:56.182Z,2.00
2019-05-14T00:57:01.440Z,2.07
2019-05-14T01:02:06.005Z,1.90
2019-05-14T01:07:11.842Z,1.90
2019-05-14T01:12:18.668Z,2.17
2019-05-14T01:17:22.967Z,2.83
2019-05-14T01:22:27.352Z,2.53
2019-05-14T01:27:31.871Z,2.20
2019-05-14T01:32:36.278Z,2.03
2019-05-14T01:37:41.661Z,1.80
2019-05-14T01:42:47.210Z,1.53
2019-05-14T01:47:52.133Z,1.80
2019-05-14T01:52:56.509Z,1.60
2019-05-14T01:58:02.309Z,2.00
2019-05-14T02:03:07.958Z,1.90
2019-05-14T02:08:13.368Z,2.12
2019-05-14T02:13:17.723Z,2.10
2019-05-14T02:18:22.069Z,2.37
2019-05-14T02:23:26.435Z,2.30
2019-05-14T02:28:31.463Z,2.20
2019-05-14T02:33:39.450Z,1.90
2019-05-14T02:38:42.136Z,2.03
2019-05-14T02:43:49.919Z,2.10
2019-05-14T02:48:52.604Z,2.10
2019-05-14T02:53:59.181Z,2.30
2019-05-14T02:59:05.785Z,2.33
2019-05-14T03:04:09.780Z,2.00
2019-05-14T03:09:14.283Z,2.20
2019-05-14T03:14:19.509Z,2.20
2019-05-14T03:19:24.184Z,2.23
2019-05-14T03:24:29.803Z,2.47
2019-05-14T03:29:34.196Z,2.40
2019-05-14T03:34:42.880Z,2.30
2019-05-14T03:39:44.621Z,2.20
2019-05-14T03:44:49.232Z,2.30
2019-05-14T03:49:53.892Z,2.37
2019-05-14T03:55:01.300Z,2.73
2019-05-14T04:00:06.048Z,2.40
2019-05-14T04:05:12.126Z,2.30
2019-05-14T04:10:19.513Z,2.10
2019-05-14T04:15:24.327Z,2.40
2019-05-14T04:20:30.254Z,2.30
2019-05-14T04:25:39.040Z,2.77
2019-05-14T04:30:44.095Z,2.43
2019-05-14T04:35:49.187Z,2.87
2019-05-14T04:40:53.661Z,2.50
2019-05-14T04:45:59.217Z,2.43
2019-05-14T04:51:04.066Z,2.60
2019-05-14T04:56:09.820Z,2.27
2019-05-14T05:01:14.485Z,2.60
2019-05-14T05:06:19.236Z,2.50
2019-05-14T05:11:23.815Z,2.47
2019-05-14T05:16:29.558Z,2.67
2019-05-14T05:21:34.332Z,3.00
2019-05-14T05:26:39.362Z,2.40
2019-05-14T05:31:43.835Z,2.63
2019-05-14T05:36:48.684Z,2.60
2019-05-14T05:41:53.087Z,2.63
2019-05-14T05:46:59.639Z,2.40
2019-05-14T05:52:03.543Z,2.37
2019-05-14T05:57:09.305Z,2.40
2019-05-14T06:02:14.606Z,2.33
2019-05-14T06:07:18.969Z,2.70
2019-05-14T06:12:23.368Z,2.33
2019-05-14T06:17:28.524Z,2.43
2019-05-14T06:22:33.065Z,2.60
2019-05-14T06:27:38.002Z,2.10
2019-05-14T06:32:42.577Z,1.97
2019-05-14T06:37:49.035Z,1.70
2019-05-14T06:42:53.073Z,2.00
2019-05-14T06:47:59.316Z,2.07
2019-05-14T06:53:03.768Z,2.00
2019-05-14T06:58:09.201Z,1.90
2019-05-14T07:03:13.711Z,2.00
2019-05-14T07:08:18.799Z,1.80
2019-05-14T07:13:23.411Z,1.80
2019-05-14T07:18:30.236Z,1.73
2019-05-14T07:23:38.187Z,1.80
2019-05-14T07:28:42.650Z,1.50
2019-05-14T07:33:49.333Z,1.60
2019-05-14T07:38:56.396Z,1.50
2019-05-14T07:43:59.181Z,1.37
2019-05-14T07:49:08.451Z,1.20
2019-05-14T07:54:09.583Z,1.30
2019-05-14T07:59:13.961Z,1.40
2019-05-14T08:04:20.007Z,1.50
2019-05-14T08:09:24.536Z,1.43
2019-05-14T08:14:33.608Z,1.37
2019-05-14T08:19:34.995Z,1.40
2019-05-14T08:24:39.493Z,1.50
2019-05-14T08:29:43.866Z,1.90
2019-05-14T08:34:48.310Z,1.73
2019-05-14T08:39:52.765Z,1.70
2019-05-14T08:44:59.179Z,2.00
2019-05-14T08:50:03.277Z,1.90
2019-05-14T08:55:11.103Z,2.20
2019-05-14T09:00:14.309Z,1.80
2019-05-14T09:05:18.715Z,1.80
2019-05-14T09:10:24.145Z,1.70
2019-05-14T09:15:28.895Z,1.75
2019-05-14T09:20:33.366Z,1.50
2019-05-14T09:25:46.431Z,1.60
2019-05-14T09:30:43.949Z,1.70
2019-05-14T09:35:49.355Z,1.40
2019-05-14T09:41:06.947Z,1.40
2019-05-14T09:46:00.001Z,1.43
2019-05-14T09:51:04.368Z,1.40
2019-05-14T09:56:09.255Z,1.57
2019-05-14T10:01:13.683Z,1.50
2019-05-14T10:06:20.663Z,1.40
2019-05-14T10:11:24.279Z,1.30
2019-05-14T10:16:29.208Z,1.53
2019-05-14T10:21:33.707Z,1.80
2019-05-14T10:26:39.451Z,1.73
2019-05-14T10:31:44.055Z,1.40
2019-05-14T10:36:48.439Z,1.63
2019-05-14T10:41:52.791Z,1.77
2019-05-14T10:46:58.267Z,1.80
2019-05-14T10:52:02.825Z,1.63
2019-05-14T10:57:09.559Z,1.47
2019-05-14T11:02:13.261Z,1.40
2019-05-14T11:07:18.624Z,1.60
2019-05-14T11:12:23.167Z,1.40
2019-05-14T11:17:29.088Z,1.60
2019-05-14T11:22:33.786Z,1.80
2019-05-14T11:27:38.903Z,1.70
2019-05-14T11:32:43.492Z,1.43
2019-05-14T11:37:48.349Z,1.70
2019-05-14T11:42:52.948Z,1.97
2019-05-14T11:47:58.448Z,1.80
2019-05-14T11:53:03.231Z,1.83
2019-05-14T11:58:08.752Z,1.80
2019-05-14T12:03:14.100Z,1.67
2019-05-14T12:08:18.896Z,2.17
2019-05-14T12:13:23.466Z,2.40
2019-05-14T12:18:29.190Z,1.43
2019-05-14T12:23:33.829Z,1.00
2019-05-14T12:28:38.753Z,1.70
2019-05-14T12:33:43.326Z,2.17
2019-05-14T12:38:47.709Z,2.03
2019-05-14T12:43:52.226Z,2.00
2019-05-14T12:48:58.949Z,2.10
2019-05-14T12:54:02.818Z,1.97
2019-05-14T12:59:07.261Z,2.00
2019-05-14T13:04:11.626Z,1.90
2019-05-14T13:09:20.833Z,1.90
2019-05-14T13:14:22.075Z,1.90
2019-05-14T13:19:28.494Z,2.03
2019-05-14T13:24:32.615Z,2.30
2019-05-14T13:29:36.975Z,2.10
2019-05-14T13:34:41.372Z,1.87
2019-05-14T13:39:50.008Z,1.87
2019-05-14T13:44:51.887Z,1.90
2019-05-14T13:49:59.060Z,1.80
2019-05-14T13:55:02.299Z,1.70
2019-05-14T14:00:11.871Z,1.70
2019-05-14T14:05:15.120Z,2.07
2019-05-14T14:10:19.512Z,2.10
2019-05-14T14:15:24.830Z,2.30
2019-05-14T14:20:29.276Z,2.23
2019-05-14T14:25:33.806Z,2.57
2019-05-14T14:30:39.626Z,2.50
2019-05-14T14:35:44.194Z,2.80
2019-05-14T14:40:48.794Z,2.90
2019-05-14T14:45:53.129Z,2.77
2019-05-14T14:50:58.613Z,2.70
2019-05-14T14:56:03.236Z,2.77
2019-05-14T15:01:08.899Z,2.80
2019-05-14T15:06:14.573Z,2.73
2019-05-14T15:11:19.083Z,3.33
2019-05-14T15:16:24.212Z,2.57
2019-05-14T15:21:29.909Z,2.70
2019-05-14T15:26:35.495Z,2.80
2019-05-14T15:31:40.022Z,3.10
2019-05-14T15:36:44.340Z,2.83
2019-05-14T15:41:49.858Z,2.80
2019-05-14T15:46:54.448Z,2.53
2019-05-14T15:51:58.828Z,1.40
2019-05-14T15:57:03.191Z,1.40
2019-05-14T16:02:09.427Z,1.30
2019-05-14T16:07:13.671Z,1.50
2019-05-14T16:12:19.686Z,1.40
2019-05-14T16:17:30.368Z,1.40
2019-05-14T16:22:35.000Z,1.40
2019-05-14T16:27:39.958Z,1.40
2019-05-14T16:32:44.533Z,2.20
2019-05-14T16:37:48.910Z,1.20
2019-05-14T16:42:53.279Z,1.47
2019-05-14T16:47:59.315Z,1.37
2019-05-14T16:53:03.791Z,1.60
2019-05-14T16:58:08.953Z,1.30
2019-05-14T17:03:13.400Z,1.40
2019-05-14T17:08:19.001Z,1.20
2019-05-14T17:13:23.582Z,1.10
2019-05-14T17:18:28.710Z,1.60
2019-05-14T17:23:33.278Z,1.80
2019-05-14T17:28:40.339Z,1.00
2019-05-14T17:33:43.738Z,1.10
2019-05-14T17:38:49.148Z,1.10
2019-05-14T17:43:53.883Z,1.47
2019-05-14T17:48:59.188Z,1.40
2019-05-14T17:54:03.671Z,1.33
2019-05-14T17:59:08.722Z,1.20
2019-05-14T18:04:13.304Z,1.07
2019-05-14T18:09:19.794Z,1.30
2019-05-14T18:14:23.815Z,1.23
2019-05-14T18:19:29.022Z,1.50
2019-05-14T18:24:34.567Z,1.80
2019-05-14T18:29:39.227Z,1.60
2019-05-14T18:34:43.651Z,1.40
2019-05-14T18:39:48.530Z,1.53
2019-05-14T18:44:52.959Z,1.53
2019-05-14T18:49:59.507Z,1.37
2019-05-14T18:55:08.470Z,1.90
2019-05-14T19:00:34.001Z,1.73
2019-05-14T19:05:38.447Z,1.40
2019-05-14T19:10:42.885Z,1.70
2019-05-14T19:15:48.349Z,1.63
2019-05-14T19:20:52.807Z,1.43
2019-05-14T19:25:59.171Z,1.80
2019-05-14T19:31:03.231Z,1.23
2019-05-14T19:36:08.833Z,1.50
2019-05-14T19:41:13.408Z,1.60
2019-05-14T19:46:17.742Z,1.63
2019-05-14T19:51:22.082Z,1.40
2019-05-14T19:56:29.116Z,1.50
2019-05-14T20:01:32.538Z,1.47
2019-05-14T20:06:38.857Z,1.70
2019-05-14T20:11:42.975Z,1.40
2019-05-14T20:16:49.080Z,1.50
2019-05-14T20:21:54.716Z,1.40
2019-05-14T20:27:08.229Z,1.50
2019-05-14T20:32:05.188Z,1.40
2019-05-14T20:37:09.576Z,1.57
2019-05-14T20:42:14.013Z,1.50
2019-05-14T20:47:18.991Z,1.60
2019-05-14T20:52:23.534Z,1.70
2019-05-14T20:57:33.214Z,1.80
2019-05-14T21:02:33.981Z,1.43
2019-05-14T21:07:38.676Z,1.37
2019-05-14T21:12:43.250Z,1.50
2019-05-14T21:17:50.249Z,1.63
2019-05-14T21:22:53.894Z,1.70
2019-05-14T21:27:58.941Z,1.50
2019-05-14T21:33:04.529Z,1.60
2019-05-14T21:38:09.855Z,1.10
2019-05-14T21:43:14.221Z,1.40
2019-05-14T21:48:19.903Z,1.40
2019-05-14T21:53:24.467Z,1.60
2019-05-14T21:58:29.215Z,1.50
2019-05-14T22:03:33.627Z,1.30
2019-05-14T22:08:39.244Z,1.50
2019-05-14T22:13:43.964Z,2.00
2019-05-14T22:18:48.490Z,1.30
2019-05-14T22:23:52.968Z,1.40
2019-05-14T22:28:58.682Z,1.67
2019-05-14T22:34:03.192Z,1.50
2019-05-14T22:39:07.547Z,1.40
2019-05-14T22:44:11.891Z,1.40
2019-05-14T22:49:18.623Z,1.77
2019-05-14T22:54:22.335Z,1.40
2019-05-14T22:59:28.337Z,1.40
2019-05-14T23:04:32.858Z,1.70
2019-05-14T23:09:38.804Z,1.53
2019-05-14T23:14:43.242Z,1.40
2019-05-14T23:19:48.359Z,1.60
2019-05-14T23:24:52.829Z,1.40
2019-05-14T23:29:58.699Z,1.50
2019-05-14T23:35:03.372Z,1.50
2019-05-14T23:40:08.562Z,1.60
2019-05-14T23:45:13.168Z,1.40
2019-05-14T23:50:17.579Z,1.40
2019-05-14T23:55:21.948Z,1.40
